<?xml version="1.0" encoding="UTF-8" standalone="no" ?>
<gpx xmlns="http://www.topografix.com/GPX/1/1" xmlns:xsi="http://www.w3.org/2001/XMLSchema-instance" xsi:schemaLocation="http://www.topografix.com/GPX/1/1 http://www.topografix.com/GPX/1/1/gpx.xsd" version="1.1" creator="VisuGPX - https://www.visugpx.com">
  <metadata>
    <name>Mervent 21,25km D 391 D-382</name>
    <desc><![CDATA[Sortie trail en forêt avec un parcours assez technique et de belles bosses.]]></desc>
  </metadata>
  <trk>
    <name><![CDATA[Mervent 21.25km D391+ - D382- on GPSies.com]]></name>
    <trkseg>
      <trkpt lat="46.51244" lon="-0.79252">
        <ele>78</ele>
        <time>2010-01-01T00:00:00Z</time>
      </trkpt>
      <trkpt lat="46.5082" lon="-0.79435">
        <ele>87</ele>
        <time>2010-01-01T00:03:17Z</time>
      </trkpt>
      <trkpt lat="46.50781" lon="-0.79452">
        <ele>86</ele>
        <time>2010-01-01T00:03:34Z</time>
      </trkpt>
      <trkpt lat="46.50789" lon="-0.79669">
        <ele>65</ele>
        <time>2010-01-01T00:04:41Z</time>
      </trkpt>
      <trkpt lat="46.50758" lon="-0.79729">
        <ele>68</ele>
        <time>2010-01-01T00:05:04Z</time>
      </trkpt>
      <trkpt lat="46.50741" lon="-0.79804">
        <ele>75</ele>
        <time>2010-01-01T00:05:28Z</time>
      </trkpt>
      <trkpt lat="46.50731" lon="-0.79873">
        <ele>81</ele>
        <time>2010-01-01T00:05:49Z</time>
      </trkpt>
      <trkpt lat="46.50712" lon="-0.79858">
        <ele>78</ele>
        <time>2010-01-01T00:05:59Z</time>
      </trkpt>
      <trkpt lat="46.50681" lon="-0.79804">
        <ele>68</ele>
        <time>2010-01-01T00:06:21Z</time>
      </trkpt>
      <trkpt lat="46.50607" lon="-0.79781">
        <ele>61</ele>
        <time>2010-01-01T00:06:54Z</time>
      </trkpt>
      <trkpt lat="46.50532" lon="-0.79832">
        <ele>61</ele>
        <time>2010-01-01T00:07:31Z</time>
      </trkpt>
      <trkpt lat="46.50501" lon="-0.79856">
        <ele>65</ele>
        <time>2010-01-01T00:07:47Z</time>
      </trkpt>
      <trkpt lat="46.50436" lon="-0.79824">
        <ele>67</ele>
        <time>2010-01-01T00:08:17Z</time>
      </trkpt>
      <trkpt lat="46.50351" lon="-0.79813">
        <ele>64</ele>
        <time>2010-01-01T00:08:55Z</time>
      </trkpt>
      <trkpt lat="46.50307" lon="-0.79768">
        <ele>54</ele>
        <time>2010-01-01T00:09:19Z</time>
      </trkpt>
      <trkpt lat="46.50245" lon="-0.79768">
        <ele>54</ele>
        <time>2010-01-01T00:09:47Z</time>
      </trkpt>
      <trkpt lat="46.50159" lon="-0.79749">
        <ele>52</ele>
        <time>2010-01-01T00:10:25Z</time>
      </trkpt>
      <trkpt lat="46.50071" lon="-0.79755">
        <ele>53</ele>
        <time>2010-01-01T00:11:05Z</time>
      </trkpt>
      <trkpt lat="46.50015" lon="-0.79703">
        <ele>46</ele>
        <time>2010-01-01T00:11:34Z</time>
      </trkpt>
      <trkpt lat="46.49995" lon="-0.79661">
        <ele>40</ele>
        <time>2010-01-01T00:11:50Z</time>
      </trkpt>
      <trkpt lat="46.49993" lon="-0.79536">
        <ele>25</ele>
        <time>2010-01-01T00:12:28Z</time>
      </trkpt>
      <trkpt lat="46.50066" lon="-0.79444">
        <ele>25</ele>
        <time>2010-01-01T00:13:11Z</time>
      </trkpt>
      <trkpt lat="46.50183" lon="-0.79386">
        <ele>32</ele>
        <time>2010-01-01T00:14:06Z</time>
      </trkpt>
      <trkpt lat="46.50276" lon="-0.79347">
        <ele>40</ele>
        <time>2010-01-01T00:14:49Z</time>
      </trkpt>
      <trkpt lat="46.50303" lon="-0.79373">
        <ele>50</ele>
        <time>2010-01-01T00:15:03Z</time>
      </trkpt>
      <trkpt lat="46.50353" lon="-0.79347">
        <ele>53</ele>
        <time>2010-01-01T00:15:27Z</time>
      </trkpt>
      <trkpt lat="46.50375" lon="-0.79281">
        <ele>35</ele>
        <time>2010-01-01T00:15:50Z</time>
      </trkpt>
      <trkpt lat="46.50354" lon="-0.79156">
        <ele>22</ele>
        <time>2010-01-01T00:16:29Z</time>
      </trkpt>
      <trkpt lat="46.50307" lon="-0.78967">
        <ele>28</ele>
        <time>2010-01-01T00:17:30Z</time>
      </trkpt>
      <trkpt lat="46.50226" lon="-0.78701">
        <ele>26</ele>
        <time>2010-01-01T00:18:59Z</time>
      </trkpt>
      <trkpt lat="46.50198" lon="-0.78566">
        <ele>22</ele>
        <time>2010-01-01T00:19:43Z</time>
      </trkpt>
      <trkpt lat="46.50136" lon="-0.78504">
        <ele>26</ele>
        <time>2010-01-01T00:20:16Z</time>
      </trkpt>
      <trkpt lat="46.50046" lon="-0.78345">
        <ele>28</ele>
        <time>2010-01-01T00:21:19Z</time>
      </trkpt>
      <trkpt lat="46.50007" lon="-0.78322">
        <ele>34</ele>
        <time>2010-01-01T00:21:38Z</time>
      </trkpt>
      <trkpt lat="46.49978" lon="-0.78341">
        <ele>46</ele>
        <time>2010-01-01T00:21:52Z</time>
      </trkpt>
      <trkpt lat="46.50029" lon="-0.78448">
        <ele>44</ele>
        <time>2010-01-01T00:22:32Z</time>
      </trkpt>
      <trkpt lat="46.49978" lon="-0.78457">
        <ele>54</ele>
        <time>2010-01-01T00:22:55Z</time>
      </trkpt>
      <trkpt lat="46.49926" lon="-0.78427">
        <ele>59</ele>
        <time>2010-01-01T00:23:20Z</time>
      </trkpt>
      <trkpt lat="46.49854" lon="-0.78405">
        <ele>68</ele>
        <time>2010-01-01T00:23:53Z</time>
      </trkpt>
      <trkpt lat="46.49781" lon="-0.78382">
        <ele>71</ele>
        <time>2010-01-01T00:24:26Z</time>
      </trkpt>
      <trkpt lat="46.49737" lon="-0.78334">
        <ele>71</ele>
        <time>2010-01-01T00:24:50Z</time>
      </trkpt>
      <trkpt lat="46.4969" lon="-0.78287">
        <ele>71</ele>
        <time>2010-01-01T00:25:16Z</time>
      </trkpt>
      <trkpt lat="46.49644" lon="-0.78261">
        <ele>73</ele>
        <time>2010-01-01T00:25:38Z</time>
      </trkpt>
      <trkpt lat="46.49518" lon="-0.7836">
        <ele>73</ele>
        <time>2010-01-01T00:26:41Z</time>
      </trkpt>
      <trkpt lat="46.49495" lon="-0.78311">
        <ele>73</ele>
        <time>2010-01-01T00:27:00Z</time>
      </trkpt>
      <trkpt lat="46.49471" lon="-0.78238">
        <ele>74</ele>
        <time>2010-01-01T00:27:24Z</time>
      </trkpt>
      <trkpt lat="46.49439" lon="-0.78197">
        <ele>72</ele>
        <time>2010-01-01T00:27:44Z</time>
      </trkpt>
      <trkpt lat="46.49329" lon="-0.78261">
        <ele>59</ele>
        <time>2010-01-01T00:28:36Z</time>
      </trkpt>
      <trkpt lat="46.49131" lon="-0.78422">
        <ele>45</ele>
        <time>2010-01-01T00:30:17Z</time>
      </trkpt>
      <trkpt lat="46.49108" lon="-0.78446">
        <ele>44</ele>
        <time>2010-01-01T00:30:29Z</time>
      </trkpt>
      <trkpt lat="46.49082" lon="-0.78393">
        <ele>44</ele>
        <time>2010-01-01T00:30:49Z</time>
      </trkpt>
      <trkpt lat="46.49071" lon="-0.78389">
        <ele>44</ele>
        <time>2010-01-01T00:30:55Z</time>
      </trkpt>
      <trkpt lat="46.49034" lon="-0.78321">
        <ele>45</ele>
        <time>2010-01-01T00:31:21Z</time>
      </trkpt>
      <trkpt lat="46.49018" lon="-0.78299">
        <ele>45</ele>
        <time>2010-01-01T00:31:31Z</time>
      </trkpt>
      <trkpt lat="46.49035" lon="-0.78278">
        <ele>47</ele>
        <time>2010-01-01T00:31:41Z</time>
      </trkpt>
      <trkpt lat="46.49057" lon="-0.7825">
        <ele>50</ele>
        <time>2010-01-01T00:31:54Z</time>
      </trkpt>
      <trkpt lat="46.4906" lon="-0.78241">
        <ele>50</ele>
        <time>2010-01-01T00:31:57Z</time>
      </trkpt>
      <trkpt lat="46.49051" lon="-0.7823">
        <ele>51</ele>
        <time>2010-01-01T00:32:02Z</time>
      </trkpt>
      <trkpt lat="46.4903" lon="-0.78218">
        <ele>50</ele>
        <time>2010-01-01T00:32:12Z</time>
      </trkpt>
      <trkpt lat="46.4901" lon="-0.78197">
        <ele>51</ele>
        <time>2010-01-01T00:32:23Z</time>
      </trkpt>
      <trkpt lat="46.4899" lon="-0.78171">
        <ele>50</ele>
        <time>2010-01-01T00:32:35Z</time>
      </trkpt>
      <trkpt lat="46.4897" lon="-0.78138">
        <ele>48</ele>
        <time>2010-01-01T00:32:49Z</time>
      </trkpt>
      <trkpt lat="46.48962" lon="-0.78128">
        <ele>48</ele>
        <time>2010-01-01T00:32:53Z</time>
      </trkpt>
      <trkpt lat="46.48961" lon="-0.78103">
        <ele>47</ele>
        <time>2010-01-01T00:33:01Z</time>
      </trkpt>
      <trkpt lat="46.48964" lon="-0.78073">
        <ele>46</ele>
        <time>2010-01-01T00:33:10Z</time>
      </trkpt>
      <trkpt lat="46.48975" lon="-0.78045">
        <ele>44</ele>
        <time>2010-01-01T00:33:20Z</time>
      </trkpt>
      <trkpt lat="46.48984" lon="-0.78017">
        <ele>43</ele>
        <time>2010-01-01T00:33:30Z</time>
      </trkpt>
      <trkpt lat="46.48989" lon="-0.77992">
        <ele>43</ele>
        <time>2010-01-01T00:33:37Z</time>
      </trkpt>
      <trkpt lat="46.48979" lon="-0.7797">
        <ele>40</ele>
        <time>2010-01-01T00:33:45Z</time>
      </trkpt>
      <trkpt lat="46.48975" lon="-0.7796">
        <ele>39</ele>
        <time>2010-01-01T00:33:49Z</time>
      </trkpt>
      <trkpt lat="46.48977" lon="-0.77938">
        <ele>39</ele>
        <time>2010-01-01T00:33:56Z</time>
      </trkpt>
      <trkpt lat="46.48987" lon="-0.7791">
        <ele>40</ele>
        <time>2010-01-01T00:34:05Z</time>
      </trkpt>
      <trkpt lat="46.49006" lon="-0.77885">
        <ele>41</ele>
        <time>2010-01-01T00:34:17Z</time>
      </trkpt>
      <trkpt lat="46.49027" lon="-0.7786">
        <ele>41</ele>
        <time>2010-01-01T00:34:29Z</time>
      </trkpt>
      <trkpt lat="46.49047" lon="-0.77836">
        <ele>43</ele>
        <time>2010-01-01T00:34:40Z</time>
      </trkpt>
      <trkpt lat="46.49163" lon="-0.77788">
        <ele>53</ele>
        <time>2010-01-01T00:35:34Z</time>
      </trkpt>
      <trkpt lat="46.49223" lon="-0.77757">
        <ele>56</ele>
        <time>2010-01-01T00:36:02Z</time>
      </trkpt>
      <trkpt lat="46.49337" lon="-0.77709">
        <ele>66</ele>
        <time>2010-01-01T00:36:55Z</time>
      </trkpt>
      <trkpt lat="46.4943" lon="-0.77659">
        <ele>73</ele>
        <time>2010-01-01T00:37:39Z</time>
      </trkpt>
      <trkpt lat="46.49516" lon="-0.77559">
        <ele>77</ele>
        <time>2010-01-01T00:38:28Z</time>
      </trkpt>
      <trkpt lat="46.49575" lon="-0.77469">
        <ele>79</ele>
        <time>2010-01-01T00:39:06Z</time>
      </trkpt>
      <trkpt lat="46.49599" lon="-0.77417">
        <ele>79</ele>
        <time>2010-01-01T00:39:26Z</time>
      </trkpt>
      <trkpt lat="46.49632" lon="-0.77416">
        <ele>80</ele>
        <time>2010-01-01T00:39:40Z</time>
      </trkpt>
      <trkpt lat="46.49674" lon="-0.77345">
        <ele>80</ele>
        <time>2010-01-01T00:40:09Z</time>
      </trkpt>
      <trkpt lat="46.497" lon="-0.77231">
        <ele>81</ele>
        <time>2010-01-01T00:40:46Z</time>
      </trkpt>
      <trkpt lat="46.49722" lon="-0.77123">
        <ele>86</ele>
        <time>2010-01-01T00:41:20Z</time>
      </trkpt>
      <trkpt lat="46.4975" lon="-0.77055">
        <ele>90</ele>
        <time>2010-01-01T00:41:44Z</time>
      </trkpt>
      <trkpt lat="46.49779" lon="-0.77011">
        <ele>93</ele>
        <time>2010-01-01T00:42:03Z</time>
      </trkpt>
      <trkpt lat="46.49804" lon="-0.76936">
        <ele>93</ele>
        <time>2010-01-01T00:42:28Z</time>
      </trkpt>
      <trkpt lat="46.49832" lon="-0.76883">
        <ele>93</ele>
        <time>2010-01-01T00:42:49Z</time>
      </trkpt>
      <trkpt lat="46.4987" lon="-0.76823">
        <ele>94</ele>
        <time>2010-01-01T00:43:14Z</time>
      </trkpt>
      <trkpt lat="46.49926" lon="-0.76772">
        <ele>93</ele>
        <time>2010-01-01T00:43:43Z</time>
      </trkpt>
      <trkpt lat="46.49975" lon="-0.76743">
        <ele>93</ele>
        <time>2010-01-01T00:44:07Z</time>
      </trkpt>
      <trkpt lat="46.50005" lon="-0.76741">
        <ele>94</ele>
        <time>2010-01-01T00:44:20Z</time>
      </trkpt>
      <trkpt lat="46.50064" lon="-0.767">
        <ele>92</ele>
        <time>2010-01-01T00:44:49Z</time>
      </trkpt>
      <trkpt lat="46.50139" lon="-0.76645">
        <ele>88</ele>
        <time>2010-01-01T00:45:27Z</time>
      </trkpt>
      <trkpt lat="46.50228" lon="-0.76577">
        <ele>82</ele>
        <time>2010-01-01T00:46:12Z</time>
      </trkpt>
      <trkpt lat="46.50328" lon="-0.76505">
        <ele>80</ele>
        <time>2010-01-01T00:47:01Z</time>
      </trkpt>
      <trkpt lat="46.50429" lon="-0.76427">
        <ele>85</ele>
        <time>2010-01-01T00:47:52Z</time>
      </trkpt>
      <trkpt lat="46.50486" lon="-0.76588">
        <ele>80</ele>
        <time>2010-01-01T00:48:47Z</time>
      </trkpt>
      <trkpt lat="46.50578" lon="-0.76516">
        <ele>82</ele>
        <time>2010-01-01T00:49:34Z</time>
      </trkpt>
      <trkpt lat="46.50682" lon="-0.76442">
        <ele>87</ele>
        <time>2010-01-01T00:50:25Z</time>
      </trkpt>
      <trkpt lat="46.50832" lon="-0.7633">
        <ele>95</ele>
        <time>2010-01-01T00:51:40Z</time>
      </trkpt>
      <trkpt lat="46.50787" lon="-0.76207">
        <ele>96</ele>
        <time>2010-01-01T00:52:22Z</time>
      </trkpt>
      <trkpt lat="46.50744" lon="-0.76095">
        <ele>95</ele>
        <time>2010-01-01T00:53:02Z</time>
      </trkpt>
      <trkpt lat="46.50741" lon="-0.76019">
        <ele>96</ele>
        <time>2010-01-01T00:53:25Z</time>
      </trkpt>
      <trkpt lat="46.50737" lon="-0.75924">
        <ele>99</ele>
        <time>2010-01-01T00:53:54Z</time>
      </trkpt>
      <trkpt lat="46.5066" lon="-0.7595">
        <ele>101</ele>
        <time>2010-01-01T00:54:29Z</time>
      </trkpt>
      <trkpt lat="46.50645" lon="-0.75947">
        <ele>102</ele>
        <time>2010-01-01T00:54:36Z</time>
      </trkpt>
      <trkpt lat="46.50604" lon="-0.75921">
        <ele>106</ele>
        <time>2010-01-01T00:54:56Z</time>
      </trkpt>
      <trkpt lat="46.50558" lon="-0.75877">
        <ele>108</ele>
        <time>2010-01-01T00:55:20Z</time>
      </trkpt>
      <trkpt lat="46.50509" lon="-0.7582">
        <ele>105</ele>
        <time>2010-01-01T00:55:48Z</time>
      </trkpt>
      <trkpt lat="46.50485" lon="-0.75813">
        <ele>103</ele>
        <time>2010-01-01T00:55:59Z</time>
      </trkpt>
      <trkpt lat="46.50439" lon="-0.75821">
        <ele>99</ele>
        <time>2010-01-01T00:56:20Z</time>
      </trkpt>
      <trkpt lat="46.50383" lon="-0.75828">
        <ele>96</ele>
        <time>2010-01-01T00:56:45Z</time>
      </trkpt>
      <trkpt lat="46.50343" lon="-0.75826">
        <ele>94</ele>
        <time>2010-01-01T00:57:03Z</time>
      </trkpt>
      <trkpt lat="46.50268" lon="-0.75843">
        <ele>92</ele>
        <time>2010-01-01T00:57:36Z</time>
      </trkpt>
      <trkpt lat="46.50211" lon="-0.75844">
        <ele>90</ele>
        <time>2010-01-01T00:58:02Z</time>
      </trkpt>
      <trkpt lat="46.49927" lon="-0.75872">
        <ele>91</ele>
        <time>2010-01-01T01:00:08Z</time>
      </trkpt>
      <trkpt lat="46.49957" lon="-0.75735">
        <ele>90</ele>
        <time>2010-01-01T01:00:52Z</time>
      </trkpt>
      <trkpt lat="46.50001" lon="-0.75606">
        <ele>83</ele>
        <time>2010-01-01T01:01:36Z</time>
      </trkpt>
      <trkpt lat="46.50022" lon="-0.75546">
        <ele>80</ele>
        <time>2010-01-01T01:01:57Z</time>
      </trkpt>
      <trkpt lat="46.50054" lon="-0.75422">
        <ele>73</ele>
        <time>2010-01-01T01:02:38Z</time>
      </trkpt>
      <trkpt lat="46.49992" lon="-0.75396">
        <ele>71</ele>
        <time>2010-01-01T01:03:06Z</time>
      </trkpt>
      <trkpt lat="46.50016" lon="-0.753">
        <ele>68</ele>
        <time>2010-01-01T01:03:37Z</time>
      </trkpt>
      <trkpt lat="46.50058" lon="-0.75159">
        <ele>64</ele>
        <time>2010-01-01T01:04:24Z</time>
      </trkpt>
      <trkpt lat="46.50106" lon="-0.75034">
        <ele>62</ele>
        <time>2010-01-01T01:05:08Z</time>
      </trkpt>
      <trkpt lat="46.5009" lon="-0.74946">
        <ele>60</ele>
        <time>2010-01-01T01:05:36Z</time>
      </trkpt>
      <trkpt lat="46.50146" lon="-0.74663">
        <ele>59</ele>
        <time>2010-01-01T01:07:06Z</time>
      </trkpt>
      <trkpt lat="46.50122" lon="-0.7462">
        <ele>58</ele>
        <time>2010-01-01T01:07:23Z</time>
      </trkpt>
      <trkpt lat="46.501" lon="-0.74382">
        <ele>48</ele>
        <time>2010-01-01T01:08:37Z</time>
      </trkpt>
      <trkpt lat="46.50065" lon="-0.74444">
        <ele>48</ele>
        <time>2010-01-01T01:09:02Z</time>
      </trkpt>
      <trkpt lat="46.5004" lon="-0.74496">
        <ele>47</ele>
        <time>2010-01-01T01:09:21Z</time>
      </trkpt>
      <trkpt lat="46.50012" lon="-0.74549">
        <ele>48</ele>
        <time>2010-01-01T01:09:42Z</time>
      </trkpt>
      <trkpt lat="46.49962" lon="-0.74577">
        <ele>49</ele>
        <time>2010-01-01T01:10:05Z</time>
      </trkpt>
      <trkpt lat="46.49973" lon="-0.74642">
        <ele>53</ele>
        <time>2010-01-01T01:10:26Z</time>
      </trkpt>
      <trkpt lat="46.4996" lon="-0.74732">
        <ele>56</ele>
        <time>2010-01-01T01:10:54Z</time>
      </trkpt>
      <trkpt lat="46.49925" lon="-0.748">
        <ele>57</ele>
        <time>2010-01-01T01:11:20Z</time>
      </trkpt>
      <trkpt lat="46.4986" lon="-0.74835">
        <ele>63</ele>
        <time>2010-01-01T01:11:51Z</time>
      </trkpt>
      <trkpt lat="46.49823" lon="-0.74824">
        <ele>66</ele>
        <time>2010-01-01T01:12:08Z</time>
      </trkpt>
      <trkpt lat="46.49765" lon="-0.74717">
        <ele>77</ele>
        <time>2010-01-01T01:12:50Z</time>
      </trkpt>
      <trkpt lat="46.49743" lon="-0.74725">
        <ele>80</ele>
        <time>2010-01-01T01:13:00Z</time>
      </trkpt>
      <trkpt lat="46.4971" lon="-0.74772">
        <ele>85</ele>
        <time>2010-01-01T01:13:20Z</time>
      </trkpt>
      <trkpt lat="46.49604" lon="-0.74835">
        <ele>94</ele>
        <time>2010-01-01T01:14:11Z</time>
      </trkpt>
      <trkpt lat="46.49445" lon="-0.74942">
        <ele>102</ele>
        <time>2010-01-01T01:15:29Z</time>
      </trkpt>
      <trkpt lat="46.4939" lon="-0.75077">
        <ele>102</ele>
        <time>2010-01-01T01:16:17Z</time>
      </trkpt>
      <trkpt lat="46.49304" lon="-0.75122">
        <ele>101</ele>
        <time>2010-01-01T01:16:58Z</time>
      </trkpt>
      <trkpt lat="46.49242" lon="-0.75133">
        <ele>99</ele>
        <time>2010-01-01T01:17:26Z</time>
      </trkpt>
      <trkpt lat="46.4918" lon="-0.74983">
        <ele>97</ele>
        <time>2010-01-01T01:18:19Z</time>
      </trkpt>
      <trkpt lat="46.49053" lon="-0.74893">
        <ele>97</ele>
        <time>2010-01-01T01:19:22Z</time>
      </trkpt>
      <trkpt lat="46.49159" lon="-0.74777">
        <ele>97</ele>
        <time>2010-01-01T01:20:21Z</time>
      </trkpt>
      <trkpt lat="46.49285" lon="-0.74719">
        <ele>91</ele>
        <time>2010-01-01T01:21:20Z</time>
      </trkpt>
      <trkpt lat="46.49378" lon="-0.74708">
        <ele>84</ele>
        <time>2010-01-01T01:22:01Z</time>
      </trkpt>
      <trkpt lat="46.49425" lon="-0.74624">
        <ele>80</ele>
        <time>2010-01-01T01:22:35Z</time>
      </trkpt>
      <trkpt lat="46.4947" lon="-0.74575">
        <ele>78</ele>
        <time>2010-01-01T01:22:59Z</time>
      </trkpt>
      <trkpt lat="46.49545" lon="-0.74562">
        <ele>77</ele>
        <time>2010-01-01T01:23:33Z</time>
      </trkpt>
      <trkpt lat="46.49606" lon="-0.74496">
        <ele>69</ele>
        <time>2010-01-01T01:24:07Z</time>
      </trkpt>
      <trkpt lat="46.49703" lon="-0.74429">
        <ele>57</ele>
        <time>2010-01-01T01:24:55Z</time>
      </trkpt>
      <trkpt lat="46.49704" lon="-0.74335">
        <ele>52</ele>
        <time>2010-01-01T01:25:24Z</time>
      </trkpt>
      <trkpt lat="46.49759" lon="-0.74212">
        <ele>46</ele>
        <time>2010-01-01T01:26:08Z</time>
      </trkpt>
      <trkpt lat="46.49666" lon="-0.74309">
        <ele>60</ele>
        <time>2010-01-01T01:26:59Z</time>
      </trkpt>
      <trkpt lat="46.49611" lon="-0.7436">
        <ele>67</ele>
        <time>2010-01-01T01:27:28Z</time>
      </trkpt>
      <trkpt lat="46.49589" lon="-0.74433">
        <ele>66</ele>
        <time>2010-01-01T01:27:53Z</time>
      </trkpt>
      <trkpt lat="46.4951" lon="-0.74455">
        <ele>76</ele>
        <time>2010-01-01T01:28:29Z</time>
      </trkpt>
      <trkpt lat="46.49411" lon="-0.7441">
        <ele>92</ele>
        <time>2010-01-01T01:29:15Z</time>
      </trkpt>
      <trkpt lat="46.49325" lon="-0.74343">
        <ele>98</ele>
        <time>2010-01-01T01:29:58Z</time>
      </trkpt>
      <trkpt lat="46.49226" lon="-0.74335">
        <ele>97</ele>
        <time>2010-01-01T01:30:42Z</time>
      </trkpt>
      <trkpt lat="46.49151" lon="-0.7433">
        <ele>98</ele>
        <time>2010-01-01T01:31:16Z</time>
      </trkpt>
      <trkpt lat="46.49053" lon="-0.74433">
        <ele>99</ele>
        <time>2010-01-01T01:32:09Z</time>
      </trkpt>
      <trkpt lat="46.48953" lon="-0.7453">
        <ele>100</ele>
        <time>2010-01-01T01:33:03Z</time>
      </trkpt>
      <trkpt lat="46.48855" lon="-0.7477">
        <ele>102</ele>
        <time>2010-01-01T01:34:28Z</time>
      </trkpt>
      <trkpt lat="46.48936" lon="-0.74839">
        <ele>101</ele>
        <time>2010-01-01T01:35:10Z</time>
      </trkpt>
      <trkpt lat="46.49047" lon="-0.74893">
        <ele>97</ele>
        <time>2010-01-01T01:36:02Z</time>
      </trkpt>
      <trkpt lat="46.4918" lon="-0.74985">
        <ele>97</ele>
        <time>2010-01-01T01:37:08Z</time>
      </trkpt>
      <trkpt lat="46.49241" lon="-0.75133">
        <ele>99</ele>
        <time>2010-01-01T01:38:00Z</time>
      </trkpt>
      <trkpt lat="46.49303" lon="-0.75131">
        <ele>101</ele>
        <time>2010-01-01T01:38:28Z</time>
      </trkpt>
      <trkpt lat="46.49346" lon="-0.75215">
        <ele>104</ele>
        <time>2010-01-01T01:39:00Z</time>
      </trkpt>
      <trkpt lat="46.4938" lon="-0.75352">
        <ele>104</ele>
        <time>2010-01-01T01:39:45Z</time>
      </trkpt>
      <trkpt lat="46.49397" lon="-0.75498">
        <ele>100</ele>
        <time>2010-01-01T01:40:30Z</time>
      </trkpt>
      <trkpt lat="46.494" lon="-0.75575">
        <ele>100</ele>
        <time>2010-01-01T01:40:54Z</time>
      </trkpt>
      <trkpt lat="46.49394" lon="-0.75586">
        <ele>100</ele>
        <time>2010-01-01T01:40:58Z</time>
      </trkpt>
      <trkpt lat="46.4961" lon="-0.75901">
        <ele>105</ele>
        <time>2010-01-01T01:43:14Z</time>
      </trkpt>
      <trkpt lat="46.49645" lon="-0.75935">
        <ele>105</ele>
        <time>2010-01-01T01:43:33Z</time>
      </trkpt>
      <trkpt lat="46.49752" lon="-0.7582">
        <ele>101</ele>
        <time>2010-01-01T01:44:32Z</time>
      </trkpt>
      <trkpt lat="46.49871" lon="-0.75648">
        <ele>84</ele>
        <time>2010-01-01T01:45:47Z</time>
      </trkpt>
      <trkpt lat="46.49829" lon="-0.75755">
        <ele>94</ele>
        <time>2010-01-01T01:46:25Z</time>
      </trkpt>
      <trkpt lat="46.49815" lon="-0.75916">
        <ele>98</ele>
        <time>2010-01-01T01:47:14Z</time>
      </trkpt>
      <trkpt lat="46.49798" lon="-0.76006">
        <ele>105</ele>
        <time>2010-01-01T01:47:43Z</time>
      </trkpt>
      <trkpt lat="46.49929" lon="-0.76043">
        <ele>97</ele>
        <time>2010-01-01T01:48:43Z</time>
      </trkpt>
      <trkpt lat="46.50087" lon="-0.76105">
        <ele>90</ele>
        <time>2010-01-01T01:49:56Z</time>
      </trkpt>
      <trkpt lat="46.5021" lon="-0.76129">
        <ele>89</ele>
        <time>2010-01-01T01:50:51Z</time>
      </trkpt>
      <trkpt lat="46.50298" lon="-0.76099">
        <ele>89</ele>
        <time>2010-01-01T01:51:31Z</time>
      </trkpt>
      <trkpt lat="46.50521" lon="-0.76674">
        <ele>74</ele>
        <time>2010-01-01T01:54:53Z</time>
      </trkpt>
      <trkpt lat="46.50731" lon="-0.77244">
        <ele>76</ele>
        <time>2010-01-01T01:58:11Z</time>
      </trkpt>
      <trkpt lat="46.50824" lon="-0.77506">
        <ele>80</ele>
        <time>2010-01-01T01:59:41Z</time>
      </trkpt>
      <trkpt lat="46.50756" lon="-0.77689">
        <ele>71</ele>
        <time>2010-01-01T02:00:45Z</time>
      </trkpt>
      <trkpt lat="46.50631" lon="-0.7788">
        <ele>52</ele>
        <time>2010-01-01T02:02:06Z</time>
      </trkpt>
      <trkpt lat="46.50614" lon="-0.77948">
        <ele>48</ele>
        <time>2010-01-01T02:02:28Z</time>
      </trkpt>
      <trkpt lat="46.50608" lon="-0.78079">
        <ele>37</ele>
        <time>2010-01-01T02:03:08Z</time>
      </trkpt>
      <trkpt lat="46.5062" lon="-0.78131">
        <ele>34</ele>
        <time>2010-01-01T02:03:25Z</time>
      </trkpt>
      <trkpt lat="46.50687" lon="-0.78169">
        <ele>31</ele>
        <time>2010-01-01T02:03:57Z</time>
      </trkpt>
      <trkpt lat="46.50796" lon="-0.78152">
        <ele>31</ele>
        <time>2010-01-01T02:04:45Z</time>
      </trkpt>
      <trkpt lat="46.50889" lon="-0.78178">
        <ele>29</ele>
        <time>2010-01-01T02:05:28Z</time>
      </trkpt>
      <trkpt lat="46.50939" lon="-0.78143">
        <ele>30</ele>
        <time>2010-01-01T02:05:52Z</time>
      </trkpt>
      <trkpt lat="46.50982" lon="-0.78186">
        <ele>35</ele>
        <time>2010-01-01T02:06:15Z</time>
      </trkpt>
      <trkpt lat="46.51032" lon="-0.78161">
        <ele>35</ele>
        <time>2010-01-01T02:06:39Z</time>
      </trkpt>
      <trkpt lat="46.51035" lon="-0.78227">
        <ele>49</ele>
        <time>2010-01-01T02:06:59Z</time>
      </trkpt>
      <trkpt lat="46.51034" lon="-0.78309">
        <ele>65</ele>
        <time>2010-01-01T02:07:24Z</time>
      </trkpt>
      <trkpt lat="46.5105" lon="-0.78362">
        <ele>72</ele>
        <time>2010-01-01T02:07:42Z</time>
      </trkpt>
      <trkpt lat="46.51065" lon="-0.78444">
        <ele>78</ele>
        <time>2010-01-01T02:08:08Z</time>
      </trkpt>
      <trkpt lat="46.51081" lon="-0.78504">
        <ele>81</ele>
        <time>2010-01-01T02:08:28Z</time>
      </trkpt>
      <trkpt lat="46.51069" lon="-0.78555">
        <ele>84</ele>
        <time>2010-01-01T02:08:45Z</time>
      </trkpt>
      <trkpt lat="46.51068" lon="-0.78656">
        <ele>87</ele>
        <time>2010-01-01T02:09:15Z</time>
      </trkpt>
      <trkpt lat="46.51074" lon="-0.78867">
        <ele>85</ele>
        <time>2010-01-01T02:10:20Z</time>
      </trkpt>
      <trkpt lat="46.50979" lon="-0.78905">
        <ele>80</ele>
        <time>2010-01-01T02:11:04Z</time>
      </trkpt>
      <trkpt lat="46.50876" lon="-0.78948">
        <ele>81</ele>
        <time>2010-01-01T02:11:51Z</time>
      </trkpt>
      <trkpt lat="46.50772" lon="-0.78991">
        <ele>79</ele>
        <time>2010-01-01T02:12:39Z</time>
      </trkpt>
      <trkpt lat="46.50685" lon="-0.79021">
        <ele>81</ele>
        <time>2010-01-01T02:13:19Z</time>
      </trkpt>
      <trkpt lat="46.50563" lon="-0.7907">
        <ele>85</ele>
        <time>2010-01-01T02:14:16Z</time>
      </trkpt>
      <trkpt lat="46.50571" lon="-0.79216">
        <ele>88</ele>
        <time>2010-01-01T02:15:00Z</time>
      </trkpt>
      <trkpt lat="46.50574" lon="-0.79334">
        <ele>91</ele>
        <time>2010-01-01T02:15:37Z</time>
      </trkpt>
      <trkpt lat="46.506" lon="-0.79418">
        <ele>90</ele>
        <time>2010-01-01T02:16:05Z</time>
      </trkpt>
      <trkpt lat="46.5065" lon="-0.79495">
        <ele>81</ele>
        <time>2010-01-01T02:16:37Z</time>
      </trkpt>
      <trkpt lat="46.51247" lon="-0.79261">
        <ele>77</ele>
        <time>2010-01-01T02:21:12Z</time>
      </trkpt>
      <trkpt lat="46.51247" lon="-0.79261">
        <ele>77</ele>
        <time>2010-01-01T02:21:13Z</time>
      </trkpt>
      <trkpt lat="46.51247" lon="-0.79254">
        <ele>78</ele>
        <time>2010-01-01T02:21:15Z</time>
      </trkpt>
      <trkpt lat="46.51244" lon="-0.79252">
        <ele>78</ele>
        <time>2010-01-01T02:21:16Z</time>
      </trkpt>
    </trkseg>
  </trk>
</gpx>